sensor_id;sensor_type;location;lat;lon;timestamp;P1;durP1;ratioP1;P2;durP2;ratioP2
51312;SDS011;37397;53.226;10.400;2023-12-20T00:01:01;10.68;;;3.03;;
51312;SDS011;37397;53.226;10.400;2023-12-20T00:03:28;14.77;;;3.70;;
51312;SDS011;37397;53.226;10.400;2023-12-20T00:06:07;12.63;;;3.28;;
51312;SDS011;37397;53.226;10.400;2023-12-20T00:08:33;13.23;;;3.95;;
51312;SDS011;37397;53.226;10.400;2023-12-20T00:11:00;11.10;;;3.15;;
51312;SDS011;37397;53.226;10.400;2023-12-20T00:13:26;14.05;;;2.97;;
51312;SDS011;37397;53.226;10.400;2023-12-20T00:15:53;12.07;;;3.45;;
51312;SDS011;37397;53.226;10.400;2023-12-20T00:18:19;12.15;;;2.88;;
51312;SDS011;37397;53.226;10.400;2023-12-20T00:20:46;9.95;;;2.63;;
51312;SDS011;37397;53.226;10.400;2023-12-20T00:23:12;13.00;;;2.95;;
51312;SDS011;37397;53.226;10.400;2023-12-20T00:25:39;13.20;;;2.63;;
51312;SDS011;37397;53.226;10.400;2023-12-20T00:28:06;9.48;;;3.00;;
51312;SDS011;37397;53.226;10.400;2023-12-20T00:30:32;10.75;;;2.65;;
51312;SDS011;37397;53.226;10.400;2023-12-20T00:32:59;12.18;;;2.90;;
51312;SDS011;37397;53.226;10.400;2023-12-20T00:35:26;10.65;;;2.55;;
51312;SDS011;37397;53.226;10.400;2023-12-20T00:37:53;10.20;;;2.78;;
51312;SDS011;37397;53.226;10.400;2023-12-20T00:40:19;17.65;;;2.83;;
51312;SDS011;37397;53.226;10.400;2023-12-20T00:42:47;12.65;;;2.83;;
51312;SDS011;37397;53.226;10.400;2023-12-20T00:45:14;11.63;;;2.30;;
51312;SDS011;37397;53.226;10.400;2023-12-20T00:47:40;11.38;;;2.40;;
51312;SDS011;37397;53.226;10.400;2023-12-20T00:50:08;17.95;;;2.65;;
51312;SDS011;37397;53.226;10.400;2023-12-20T00:52:35;14.85;;;3.03;;
51312;SDS011;37397;53.226;10.400;2023-12-20T00:55:02;13.07;;;2.42;;
51312;SDS011;37397;53.226;10.400;2023-12-20T00:57:30;16.35;;;3.08;;
51312;SDS011;37397;53.226;10.400;2023-12-20T00:59:57;10.57;;;2.40;;
51312;SDS011;37397;53.226;10.400;2023-12-20T01:02:24;13.23;;;2.15;;
51312;SDS011;37397;53.226;10.400;2023-12-20T01:04:50;10.77;;;2.67;;
51312;SDS011;37397;53.226;10.400;2023-12-20T01:07:17;15.90;;;2.85;;
51312;SDS011;37397;53.226;10.400;2023-12-20T01:09:44;13.32;;;3.03;;
51312;SDS011;37397;53.226;10.400;2023-12-20T01:12:10;14.80;;;2.70;;
51312;SDS011;37397;53.226;10.400;2023-12-20T01:14:37;9.30;;;2.08;;
51312;SDS011;37397;53.226;10.400;2023-12-20T01:17:05;8.98;;;2.05;;
51312;SDS011;37397;53.226;10.400;2023-12-20T01:19:32;11.18;;;2.50;;
51312;SDS011;37397;53.226;10.400;2023-12-20T01:21:59;12.02;;;2.40;;
51312;SDS011;37397;53.226;10.400;2023-12-20T01:24:25;15.02;;;2.75;;
51312;SDS011;37397;53.226;10.400;2023-12-20T01:26:52;14.95;;;2.63;;
51312;SDS011;37397;53.226;10.400;2023-12-20T01:29:18;15.35;;;2.90;;
51312;SDS011;37397;53.226;10.400;2023-12-20T01:31:45;11.98;;;3.08;;
51312;SDS011;37397;53.226;10.400;2023-12-20T01:34:12;12.70;;;2.55;;
51312;SDS011;37397;53.226;10.400;2023-12-20T01:36:39;17.55;;;2.80;;
51312;SDS011;37397;53.226;10.400;2023-12-20T01:39:05;14.10;;;2.67;;
51312;SDS011;37397;53.226;10.400;2023-12-20T01:41:50;12.43;;;2.75;;
51312;SDS011;37397;53.226;10.400;2023-12-20T01:44:16;11.73;;;2.80;;
51312;SDS011;37397;53.226;10.400;2023-12-20T01:46:43;10.43;;;2.70;;
51312;SDS011;37397;53.226;10.400;2023-12-20T01:49:10;17.23;;;2.88;;
51312;SDS011;37397;53.226;10.400;2023-12-20T01:51:37;15.02;;;2.40;;
51312;SDS011;37397;53.226;10.400;2023-12-20T01:54:03;15.13;;;2.45;;
51312;SDS011;37397;53.226;10.400;2023-12-20T01:56:31;12.90;;;2.65;;
51312;SDS011;37397;53.226;10.400;2023-12-20T01:58:58;11.70;;;2.47;;
51312;SDS011;37397;53.226;10.400;2023-12-20T02:01:26;17.02;;;2.47;;
51312;SDS011;37397;53.226;10.400;2023-12-20T02:03:55;21.85;;;3.35;;
51312;SDS011;37397;53.226;10.400;2023-12-20T02:06:22;11.00;;;2.58;;
51312;SDS011;37397;53.226;10.400;2023-12-20T02:08:50;10.35;;;2.70;;
51312;SDS011;37397;53.226;10.400;2023-12-20T02:11:17;13.13;;;2.80;;
51312;SDS011;37397;53.226;10.400;2023-12-20T02:13:44;9.00;;;2.42;;
51312;SDS011;37397;53.226;10.400;2023-12-20T02:16:10;12.38;;;2.42;;
51312;SDS011;37397;53.226;10.400;2023-12-20T02:18:37;16.05;;;2.85;;
51312;SDS011;37397;53.226;10.400;2023-12-20T02:21:05;15.73;;;2.88;;
51312;SDS011;37397;53.226;10.400;2023-12-20T02:23:32;10.80;;;2.85;;
51312;SDS011;37397;53.226;10.400;2023-12-20T02:25:58;17.40;;;3.03;;
51312;SDS011;37397;53.226;10.400;2023-12-20T02:28:25;12.52;;;3.35;;
51312;SDS011;37397;53.226;10.400;2023-12-20T02:30:53;8.52;;;2.72;;
51312;SDS011;37397;53.226;10.400;2023-12-20T02:33:19;13.38;;;2.92;;
51312;SDS011;37397;53.226;10.400;2023-12-20T02:35:46;13.85;;;3.13;;
51312;SDS011;37397;53.226;10.400;2023-12-20T02:38:13;13.65;;;3.30;;
51312;SDS011;37397;53.226;10.400;2023-12-20T02:40:40;15.77;;;3.83;;
51312;SDS011;37397;53.226;10.400;2023-12-20T02:43:14;14.27;;;3.95;;
51312;SDS011;37397;53.226;10.400;2023-12-20T02:45:41;22.85;;;4.50;;
51312;SDS011;37397;53.226;10.400;2023-12-20T02:48:07;20.00;;;3.90;;
51312;SDS011;37397;53.226;10.400;2023-12-20T02:50:34;17.13;;;4.57;;
51312;SDS011;37397;53.226;10.400;2023-12-20T02:53:00;12.98;;;4.10;;
51312;SDS011;37397;53.226;10.400;2023-12-20T02:55:27;15.80;;;4.60;;
51312;SDS011;37397;53.226;10.400;2023-12-20T02:57:54;17.98;;;4.95;;
51312;SDS011;37397;53.226;10.400;2023-12-20T03:00:20;14.80;;;4.18;;
51312;SDS011;37397;53.226;10.400;2023-12-20T03:02:47;14.20;;;4.20;;
51312;SDS011;37397;53.226;10.400;2023-12-20T03:05:13;15.77;;;4.60;;
51312;SDS011;37397;53.226;10.400;2023-12-20T03:07:40;14.30;;;5.05;;
51312;SDS011;37397;53.226;10.400;2023-12-20T03:10:07;12.55;;;4.25;;
51312;SDS011;37397;53.226;10.400;2023-12-20T03:12:45;11.80;;;4.45;;
51312;SDS011;37397;53.226;10.400;2023-12-20T03:15:12;17.23;;;4.00;;
51312;SDS011;37397;53.226;10.400;2023-12-20T03:17:38;16.73;;;4.88;;
51312;SDS011;37397;53.226;10.400;2023-12-20T03:20:05;23.45;;;4.70;;
51312;SDS011;37397;53.226;10.400;2023-12-20T03:22:33;16.35;;;4.20;;
51312;SDS011;37397;53.226;10.400;2023-12-20T03:24:59;16.20;;;4.57;;
51312;SDS011;37397;53.226;10.400;2023-12-20T03:27:26;12.75;;;4.22;;
51312;SDS011;37397;53.226;10.400;2023-12-20T03:29:52;14.93;;;4.30;;
51312;SDS011;37397;53.226;10.400;2023-12-20T03:32:19;16.52;;;4.03;;
51312;SDS011;37397;53.226;10.400;2023-12-20T03:34:46;16.95;;;4.30;;
51312;SDS011;37397;53.226;10.400;2023-12-20T03:37:13;11.63;;;4.13;;
51312;SDS011;37397;53.226;10.400;2023-12-20T03:39:40;16.50;;;4.18;;
51312;SDS011;37397;53.226;10.400;2023-12-20T03:42:06;14.48;;;4.00;;
51312;SDS011;37397;53.226;10.400;2023-12-20T03:44:33;18.13;;;4.25;;
51312;SDS011;37397;53.226;10.400;2023-12-20T03:46:59;16.15;;;4.63;;
51312;SDS011;37397;53.226;10.400;2023-12-20T03:49:26;15.68;;;3.75;;
51312;SDS011;37397;53.226;10.400;2023-12-20T03:51:52;12.10;;;4.05;;
51312;SDS011;37397;53.226;10.400;2023-12-20T03:54:19;14.27;;;4.03;;
51312;SDS011;37397;53.226;10.400;2023-12-20T03:56:46;12.65;;;3.90;;
51312;SDS011;37397;53.226;10.400;2023-12-20T03:59:12;12.68;;;4.30;;
51312;SDS011;37397;53.226;10.400;2023-12-20T04:01:39;11.40;;;2.95;;
51312;SDS011;37397;53.226;10.400;2023-12-20T04:04:11;13.63;;;3.40;;
51312;SDS011;37397;53.226;10.400;2023-12-20T04:06:37;8.75;;;3.63;;
51312;SDS011;37397;53.226;10.400;2023-12-20T04:09:04;14.23;;;3.47;;
51312;SDS011;37397;53.226;10.400;2023-12-20T04:11:31;13.68;;;3.20;;
51312;SDS011;37397;53.226;10.400;2023-12-20T04:13:57;11.68;;;3.33;;
51312;SDS011;37397;53.226;10.400;2023-12-20T04:16:24;15.30;;;3.22;;
51312;SDS011;37397;53.226;10.400;2023-12-20T04:18:51;12.23;;;2.90;;
51312;SDS011;37397;53.226;10.400;2023-12-20T04:21:18;10.98;;;3.08;;
51312;SDS011;37397;53.226;10.400;2023-12-20T04:23:44;13.18;;;3.03;;
51312;SDS011;37397;53.226;10.400;2023-12-20T04:26:11;15.27;;;3.53;;
51312;SDS011;37397;53.226;10.400;2023-12-20T04:28:37;12.63;;;3.45;;
51312;SDS011;37397;53.226;10.400;2023-12-20T04:31:04;14.38;;;3.20;;
51312;SDS011;37397;53.226;10.400;2023-12-20T04:33:31;12.13;;;3.17;;
51312;SDS011;37397;53.226;10.400;2023-12-20T04:35:57;10.68;;;3.33;;
51312;SDS011;37397;53.226;10.400;2023-12-20T04:38:24;10.10;;;3.10;;
51312;SDS011;37397;53.226;10.400;2023-12-20T04:40:50;11.65;;;3.13;;
51312;SDS011;37397;53.226;10.400;2023-12-20T04:43:17;12.48;;;3.50;;
51312;SDS011;37397;53.226;10.400;2023-12-20T04:45:43;14.40;;;2.92;;
51312;SDS011;37397;53.226;10.400;2023-12-20T04:48:10;12.02;;;3.33;;
51312;SDS011;37397;53.226;10.400;2023-12-20T04:50:37;14.02;;;3.30;;
51312;SDS011;37397;53.226;10.400;2023-12-20T04:53:03;12.50;;;3.13;;
51312;SDS011;37397;53.226;10.400;2023-12-20T04:55:30;13.80;;;3.22;;
51312;SDS011;37397;53.226;10.400;2023-12-20T04:57:57;15.55;;;3.63;;
51312;SDS011;37397;53.226;10.400;2023-12-20T05:00:23;16.63;;;3.83;;
51312;SDS011;37397;53.226;10.400;2023-12-20T05:02:50;14.70;;;3.33;;
51312;SDS011;37397;53.226;10.400;2023-12-20T05:05:16;16.48;;;3.67;;
51312;SDS011;37397;53.226;10.400;2023-12-20T05:07:44;17.48;;;4.05;;
51312;SDS011;37397;53.226;10.400;2023-12-20T05:10:11;19.75;;;3.90;;
51312;SDS011;37397;53.226;10.400;2023-12-20T05:12:37;18.58;;;3.92;;
51312;SDS011;37397;53.226;10.400;2023-12-20T05:15:07;15.38;;;4.00;;
51312;SDS011;37397;53.226;10.400;2023-12-20T05:17:34;19.88;;;4.10;;
51312;SDS011;37397;53.226;10.400;2023-12-20T05:20:01;14.40;;;3.83;;
51312;SDS011;37397;53.226;10.400;2023-12-20T05:22:28;17.08;;;4.13;;
51312;SDS011;37397;53.226;10.400;2023-12-20T05:24:54;14.88;;;3.60;;
51312;SDS011;37397;53.226;10.400;2023-12-20T05:27:21;17.23;;;4.50;;
51312;SDS011;37397;53.226;10.400;2023-12-20T05:29:48;23.20;;;4.40;;
51312;SDS011;37397;53.226;10.400;2023-12-20T05:32:14;19.73;;;4.35;;
51312;SDS011;37397;53.226;10.400;2023-12-20T05:34:41;13.00;;;4.25;;
51312;SDS011;37397;53.226;10.400;2023-12-20T05:37:08;14.60;;;3.55;;
51312;SDS011;37397;53.226;10.400;2023-12-20T05:39:35;14.20;;;3.75;;
51312;SDS011;37397;53.226;10.400;2023-12-20T05:42:01;14.00;;;3.88;;
51312;SDS011;37397;53.226;10.400;2023-12-20T05:44:28;16.63;;;4.75;;
51312;SDS011;37397;53.226;10.400;2023-12-20T05:46:54;18.38;;;4.53;;
51312;SDS011;37397;53.226;10.400;2023-12-20T05:49:21;19.60;;;3.70;;
51312;SDS011;37397;53.226;10.400;2023-12-20T05:51:48;16.60;;;3.85;;
51312;SDS011;37397;53.226;10.400;2023-12-20T05:54:14;18.63;;;4.18;;
51312;SDS011;37397;53.226;10.400;2023-12-20T05:56:41;14.63;;;4.05;;
51312;SDS011;37397;53.226;10.400;2023-12-20T05:59:08;17.42;;;4.72;;
51312;SDS011;37397;53.226;10.400;2023-12-20T06:01:35;15.52;;;4.13;;
51312;SDS011;37397;53.226;10.400;2023-12-20T06:04:02;22.10;;;4.07;;
51312;SDS011;37397;53.226;10.400;2023-12-20T06:06:29;14.32;;;4.00;;
51312;SDS011;37397;53.226;10.400;2023-12-20T06:08:57;12.70;;;3.67;;
51312;SDS011;37397;53.226;10.400;2023-12-20T06:11:23;17.15;;;4.53;;
51312;SDS011;37397;53.226;10.400;2023-12-20T06:13:50;15.77;;;3.60;;
51312;SDS011;37397;53.226;10.400;2023-12-20T06:16:18;18.33;;;4.72;;
51312;SDS011;37397;53.226;10.400;2023-12-20T06:18:45;17.25;;;4.72;;
51312;SDS011;37397;53.226;10.400;2023-12-20T06:21:12;16.50;;;4.57;;
51312;SDS011;37397;53.226;10.400;2023-12-20T06:23:39;18.05;;;5.22;;
51312;SDS011;37397;53.226;10.400;2023-12-20T06:26:05;14.73;;;4.45;;
51312;SDS011;37397;53.226;10.400;2023-12-20T06:28:32;17.02;;;4.85;;
51312;SDS011;37397;53.226;10.400;2023-12-20T06:30:59;19.23;;;4.97;;
51312;SDS011;37397;53.226;10.400;2023-12-20T06:33:27;20.08;;;5.03;;
51312;SDS011;37397;53.226;10.400;2023-12-20T06:35:53;15.98;;;5.47;;
51312;SDS011;37397;53.226;10.400;2023-12-20T06:38:20;15.02;;;4.93;;
51312;SDS011;37397;53.226;10.400;2023-12-20T06:40:46;20.85;;;5.70;;
51312;SDS011;37397;53.226;10.400;2023-12-20T06:43:13;19.88;;;5.60;;
51312;SDS011;37397;53.226;10.400;2023-12-20T06:45:58;18.98;;;5.82;;
51312;SDS011;37397;53.226;10.400;2023-12-20T06:48:24;22.70;;;5.30;;
51312;SDS011;37397;53.226;10.400;2023-12-20T06:50:51;20.42;;;4.60;;
51312;SDS011;37397;53.226;10.400;2023-12-20T06:53:17;16.88;;;4.65;;
51312;SDS011;37397;53.226;10.400;2023-12-20T06:55:44;22.25;;;4.65;;
51312;SDS011;37397;53.226;10.400;2023-12-20T06:58:10;17.60;;;4.40;;
51312;SDS011;37397;53.226;10.400;2023-12-20T07:00:37;17.83;;;4.40;;
51312;SDS011;37397;53.226;10.400;2023-12-20T07:03:04;19.33;;;5.00;;
51312;SDS011;37397;53.226;10.400;2023-12-20T07:05:31;13.90;;;4.18;;
51312;SDS011;37397;53.226;10.400;2023-12-20T07:07:58;24.00;;;5.00;;
51312;SDS011;37397;53.226;10.400;2023-12-20T07:10:25;19.58;;;4.57;;
51312;SDS011;37397;53.226;10.400;2023-12-20T07:12:51;21.83;;;4.88;;
51312;SDS011;37397;53.226;10.400;2023-12-20T07:15:18;18.02;;;4.35;;
51312;SDS011;37397;53.226;10.400;2023-12-20T07:17:45;18.88;;;4.50;;
51312;SDS011;37397;53.226;10.400;2023-12-20T07:20:12;19.77;;;4.47;;
51312;SDS011;37397;53.226;10.400;2023-12-20T07:22:38;19.58;;;4.57;;
51312;SDS011;37397;53.226;10.400;2023-12-20T07:25:06;20.58;;;4.78;;
51312;SDS011;37397;53.226;10.400;2023-12-20T07:27:33;17.38;;;4.35;;
51312;SDS011;37397;53.226;10.400;2023-12-20T07:30:00;21.90;;;3.92;;
51312;SDS011;37397;53.226;10.400;2023-12-20T07:32:26;16.10;;;4.07;;
51312;SDS011;37397;53.226;10.400;2023-12-20T07:34:53;23.50;;;5.03;;
51312;SDS011;37397;53.226;10.400;2023-12-20T07:37:21;19.02;;;4.35;;
51312;SDS011;37397;53.226;10.400;2023-12-20T07:39:47;17.58;;;4.25;;
51312;SDS011;37397;53.226;10.400;2023-12-20T07:42:14;19.75;;;3.80;;
51312;SDS011;37397;53.226;10.400;2023-12-20T07:44:41;18.65;;;4.43;;
51312;SDS011;37397;53.226;10.400;2023-12-20T07:47:08;21.83;;;4.07;;
51312;SDS011;37397;53.226;10.400;2023-12-20T07:49:34;15.90;;;4.15;;
51312;SDS011;37397;53.226;10.400;2023-12-20T07:52:01;18.85;;;3.67;;
51312;SDS011;37397;53.226;10.400;2023-12-20T07:54:28;17.48;;;4.30;;
51312;SDS011;37397;53.226;10.400;2023-12-20T07:56:55;18.70;;;4.25;;
51312;SDS011;37397;53.226;10.400;2023-12-20T07:59:23;14.57;;;4.22;;
51312;SDS011;37397;53.226;10.400;2023-12-20T08:01:58;16.85;;;4.13;;
51312;SDS011;37397;53.226;10.400;2023-12-20T08:04:25;17.52;;;3.65;;
51312;SDS011;37397;53.226;10.400;2023-12-20T08:06:52;18.73;;;3.97;;
51312;SDS011;37397;53.226;10.400;2023-12-20T08:09:19;23.92;;;5.20;;
51312;SDS011;37397;53.226;10.400;2023-12-20T08:11:49;16.05;;;3.85;;
51312;SDS011;37397;53.226;10.400;2023-12-20T08:14:16;18.02;;;3.78;;
51312;SDS011;37397;53.226;10.400;2023-12-20T08:16:42;17.92;;;4.15;;
51312;SDS011;37397;53.226;10.400;2023-12-20T08:19:09;16.40;;;4.03;;
51312;SDS011;37397;53.226;10.400;2023-12-20T08:21:36;24.10;;;4.15;;
51312;SDS011;37397;53.226;10.400;2023-12-20T08:24:04;24.27;;;4.15;;
51312;SDS011;37397;53.226;10.400;2023-12-20T08:26:32;21.08;;;4.40;;
51312;SDS011;37397;53.226;10.400;2023-12-20T08:28:59;21.08;;;4.78;;
51312;SDS011;37397;53.226;10.400;2023-12-20T08:31:27;20.60;;;4.82;;
51312;SDS011;37397;53.226;10.400;2023-12-20T08:33:55;20.73;;;4.30;;
51312;SDS011;37397;53.226;10.400;2023-12-20T08:36:22;16.88;;;4.20;;
51312;SDS011;37397;53.226;10.400;2023-12-20T08:38:50;27.27;;;5.07;;
51312;SDS011;37397;53.226;10.400;2023-12-20T08:41:16;19.58;;;5.00;;
51312;SDS011;37397;53.226;10.400;2023-12-20T08:43:43;23.27;;;4.35;;
51312;SDS011;37397;53.226;10.400;2023-12-20T08:46:10;19.77;;;4.95;;
51312;SDS011;37397;53.226;10.400;2023-12-20T08:48:38;20.98;;;4.75;;
51312;SDS011;37397;53.226;10.400;2023-12-20T08:51:05;17.98;;;4.68;;
51312;SDS011;37397;53.226;10.400;2023-12-20T08:53:34;20.38;;;4.28;;
51312;SDS011;37397;53.226;10.400;2023-12-20T08:56:01;20.98;;;4.70;;
51312;SDS011;37397;53.226;10.400;2023-12-20T08:58:28;25.38;;;4.97;;
51312;SDS011;37397;53.226;10.400;2023-12-20T09:00:55;26.85;;;5.15;;
51312;SDS011;37397;53.226;10.400;2023-12-20T09:03:24;20.10;;;4.30;;
51312;SDS011;37397;53.226;10.400;2023-12-20T09:05:50;20.20;;;4.15;;
51312;SDS011;37397;53.226;10.400;2023-12-20T09:08:17;21.75;;;4.18;;
51312;SDS011;37397;53.226;10.400;2023-12-20T09:10:43;19.23;;;3.95;;
51312;SDS011;37397;53.226;10.400;2023-12-20T09:13:11;20.23;;;4.15;;
51312;SDS011;37397;53.226;10.400;2023-12-20T09:15:38;19.42;;;4.95;;
51312;SDS011;37397;53.226;10.400;2023-12-20T09:18:05;21.77;;;4.53;;
51312;SDS011;37397;53.226;10.400;2023-12-20T09:20:32;24.02;;;5.75;;
51312;SDS011;37397;53.226;10.400;2023-12-20T09:22:59;19.48;;;4.68;;
51312;SDS011;37397;53.226;10.400;2023-12-20T09:25:26;18.17;;;4.00;;
51312;SDS011;37397;53.226;10.400;2023-12-20T09:27:53;16.48;;;4.78;;
51312;SDS011;37397;53.226;10.400;2023-12-20T09:30:20;19.48;;;4.18;;
51312;SDS011;37397;53.226;10.400;2023-12-20T09:32:53;15.25;;;3.53;;
51312;SDS011;37397;53.226;10.400;2023-12-20T09:35:21;20.48;;;4.53;;
51312;SDS011;37397;53.226;10.400;2023-12-20T09:37:48;21.20;;;4.47;;
51312;SDS011;37397;53.226;10.400;2023-12-20T09:40:15;24.00;;;4.20;;
51312;SDS011;37397;53.226;10.400;2023-12-20T09:45:17;19.27;;;4.43;;
51312;SDS011;37397;53.226;10.400;2023-12-20T09:47:51;20.23;;;4.50;;
51312;SDS011;37397;53.226;10.400;2023-12-20T09:50:19;17.98;;;4.18;;
51312;SDS011;37397;53.226;10.400;2023-12-20T09:52:51;19.80;;;4.20;;
51312;SDS011;37397;53.226;10.400;2023-12-20T09:55:18;23.02;;;4.65;;
51312;SDS011;37397;53.226;10.400;2023-12-20T09:57:47;25.30;;;5.07;;
51312;SDS011;37397;53.226;10.400;2023-12-20T10:00:15;19.55;;;4.00;;
51312;SDS011;37397;53.226;10.400;2023-12-20T10:02:45;17.27;;;3.42;;
51312;SDS011;37397;53.226;10.400;2023-12-20T10:05:26;20.05;;;4.45;;
51312;SDS011;37397;53.226;10.400;2023-12-20T10:07:58;16.77;;;3.58;;
51312;SDS011;37397;53.226;10.400;2023-12-20T10:10:26;15.43;;;4.00;;
51312;SDS011;37397;53.226;10.400;2023-12-20T10:13:08;13.57;;;3.03;;
51312;SDS011;37397;53.226;10.400;2023-12-20T10:15:39;12.18;;;2.78;;
51312;SDS011;37397;53.226;10.400;2023-12-20T10:18:07;11.70;;;2.63;;
51312;SDS011;37397;53.226;10.400;2023-12-20T10:20:34;8.73;;;2.33;;
51312;SDS011;37397;53.226;10.400;2023-12-20T10:23:01;7.07;;;2.13;;
51312;SDS011;37397;53.226;10.400;2023-12-20T10:25:28;9.32;;;2.30;;
51312;SDS011;37397;53.226;10.400;2023-12-20T10:28:12;8.30;;;1.83;;
51312;SDS011;37397;53.226;10.400;2023-12-20T10:33:08;6.70;;;1.83;;
51312;SDS011;37397;53.226;10.400;2023-12-20T10:35:40;4.03;;;1.60;;
51312;SDS011;37397;53.226;10.400;2023-12-20T10:38:11;5.95;;;2.25;;
51312;SDS011;37397;53.226;10.400;2023-12-20T10:40:40;7.72;;;2.70;;
51312;SDS011;37397;53.226;10.400;2023-12-20T10:43:07;6.72;;;2.72;;
51312;SDS011;37397;53.226;10.400;2023-12-20T10:45:35;6.22;;;2.42;;
51312;SDS011;37397;53.226;10.400;2023-12-20T10:48:02;7.03;;;2.35;;
51312;SDS011;37397;53.226;10.400;2023-12-20T10:50:31;5.38;;;2.20;;
51312;SDS011;37397;53.226;10.400;2023-12-20T10:52:58;5.65;;;2.00;;
51312;SDS011;37397;53.226;10.400;2023-12-20T10:55:25;4.55;;;2.75;;
51312;SDS011;37397;53.226;10.400;2023-12-20T10:57:53;8.25;;;2.75;;
51312;SDS011;37397;53.226;10.400;2023-12-20T11:00:28;5.95;;;2.33;;
51312;SDS011;37397;53.226;10.400;2023-12-20T11:02:57;5.35;;;2.08;;
51312;SDS011;37397;53.226;10.400;2023-12-20T11:05:53;5.82;;;1.92;;
51312;SDS011;37397;53.226;10.400;2023-12-20T11:14:31;3.75;;;1.45;;
51312;SDS011;37397;53.226;10.400;2023-12-20T11:17:10;3.42;;;1.67;;
51312;SDS011;37397;53.226;10.400;2023-12-20T11:22:24;6.85;;;2.50;;
51312;SDS011;37397;53.226;10.400;2023-12-20T11:24:52;4.95;;;2.20;;
51312;SDS011;37397;53.226;10.400;2023-12-20T11:27:20;8.48;;;2.15;;
51312;SDS011;37397;53.226;10.400;2023-12-20T11:29:53;5.70;;;2.05;;
51312;SDS011;37397;53.226;10.400;2023-12-20T11:34:56;3.45;;;1.60;;
51312;SDS011;37397;53.226;10.400;2023-12-20T11:37:30;7.00;;;1.80;;
51312;SDS011;37397;53.226;10.400;2023-12-20T11:40:05;6.68;;;2.08;;
51312;SDS011;37397;53.226;10.400;2023-12-20T11:42:44;7.93;;;1.88;;
51312;SDS011;37397;53.226;10.400;2023-12-20T11:45:13;7.00;;;1.98;;
51312;SDS011;37397;53.226;10.400;2023-12-20T11:47:46;6.63;;;1.50;;
51312;SDS011;37397;53.226;10.400;2023-12-20T11:50:14;5.63;;;1.50;;
51312;SDS011;37397;53.226;10.400;2023-12-20T11:52:41;4.55;;;1.33;;
51312;SDS011;37397;53.226;10.400;2023-12-20T11:55:07;6.90;;;1.65;;
51312;SDS011;37397;53.226;10.400;2023-12-20T11:57:34;7.10;;;1.88;;
51312;SDS011;37397;53.226;10.400;2023-12-20T12:00:02;8.18;;;1.77;;
51312;SDS011;37397;53.226;10.400;2023-12-20T12:02:37;11.93;;;2.20;;
51312;SDS011;37397;53.226;10.400;2023-12-20T12:05:04;6.72;;;1.90;;
51312;SDS011;37397;53.226;10.400;2023-12-20T12:07:34;9.38;;;2.05;;
51312;SDS011;37397;53.226;10.400;2023-12-20T12:10:01;8.25;;;1.85;;
51312;SDS011;37397;53.226;10.400;2023-12-20T12:12:30;10.63;;;1.77;;
51312;SDS011;37397;53.226;10.400;2023-12-20T12:14:57;8.23;;;1.95;;
51312;SDS011;37397;53.226;10.400;2023-12-20T12:17:24;11.95;;;2.45;;
51312;SDS011;37397;53.226;10.400;2023-12-20T12:19:51;12.00;;;2.08;;
51312;SDS011;37397;53.226;10.400;2023-12-20T12:22:29;11.85;;;2.20;;
51312;SDS011;37397;53.226;10.400;2023-12-20T12:24:58;6.47;;;1.67;;
51312;SDS011;37397;53.226;10.400;2023-12-20T12:27:26;8.60;;;1.90;;
51312;SDS011;37397;53.226;10.400;2023-12-20T12:30:03;12.48;;;2.10;;
51312;SDS011;37397;53.226;10.400;2023-12-20T12:32:33;7.38;;;2.00;;
51312;SDS011;37397;53.226;10.400;2023-12-20T12:35:02;9.63;;;2.10;;
51312;SDS011;37397;53.226;10.400;2023-12-20T12:37:30;11.95;;;2.25;;
51312;SDS011;37397;53.226;10.400;2023-12-20T12:39:56;14.35;;;2.60;;
51312;SDS011;37397;53.226;10.400;2023-12-20T12:42:23;8.82;;;2.10;;
51312;SDS011;37397;53.226;10.400;2023-12-20T12:44:54;7.13;;;1.90;;
51312;SDS011;37397;53.226;10.400;2023-12-20T12:47:22;10.30;;;2.70;;
51312;SDS011;37397;53.226;10.400;2023-12-20T12:49:49;11.02;;;2.28;;
51312;SDS011;37397;53.226;10.400;2023-12-20T12:52:18;9.27;;;2.15;;
51312;SDS011;37397;53.226;10.400;2023-12-20T12:54:46;15.70;;;2.83;;
51312;SDS011;37397;53.226;10.400;2023-12-20T12:57:13;12.27;;;2.80;;
51312;SDS011;37397;53.226;10.400;2023-12-20T12:59:42;13.25;;;2.25;;
51312;SDS011;37397;53.226;10.400;2023-12-20T13:02:10;13.52;;;2.30;;
51312;SDS011;37397;53.226;10.400;2023-12-20T13:04:36;10.75;;;2.22;;
51312;SDS011;37397;53.226;10.400;2023-12-20T13:07:03;11.98;;;2.13;;
51312;SDS011;37397;53.226;10.400;2023-12-20T13:09:30;6.97;;;1.80;;
51312;SDS011;37397;53.226;10.400;2023-12-20T13:11:57;12.35;;;2.17;;
51312;SDS011;37397;53.226;10.400;2023-12-20T13:14:24;13.85;;;3.00;;
51312;SDS011;37397;53.226;10.400;2023-12-20T13:16:50;8.38;;;1.80;;
51312;SDS011;37397;53.226;10.400;2023-12-20T13:19:17;11.27;;;1.70;;
51312;SDS011;37397;53.226;10.400;2023-12-20T13:21:46;8.98;;;2.30;;
51312;SDS011;37397;53.226;10.400;2023-12-20T13:24:13;10.48;;;2.03;;
51312;SDS011;37397;53.226;10.400;2023-12-20T13:26:40;7.65;;;1.77;;
51312;SDS011;37397;53.226;10.400;2023-12-20T13:29:07;9.02;;;2.03;;
51312;SDS011;37397;53.226;10.400;2023-12-20T13:31:34;9.13;;;2.05;;
51312;SDS011;37397;53.226;10.400;2023-12-20T13:34:03;10.60;;;2.38;;
51312;SDS011;37397;53.226;10.400;2023-12-20T13:36:30;14.18;;;2.83;;
51312;SDS011;37397;53.226;10.400;2023-12-20T13:38:58;8.38;;;2.20;;
51312;SDS011;37397;53.226;10.400;2023-12-20T13:41:24;11.65;;;1.85;;
51312;SDS011;37397;53.226;10.400;2023-12-20T13:43:51;11.25;;;2.20;;
51312;SDS011;37397;53.226;10.400;2023-12-20T13:46:17;8.20;;;2.25;;
51312;SDS011;37397;53.226;10.400;2023-12-20T13:48:44;11.00;;;2.10;;
51312;SDS011;37397;53.226;10.400;2023-12-20T13:51:12;12.40;;;2.75;;
51312;SDS011;37397;53.226;10.400;2023-12-20T13:53:39;11.73;;;2.42;;
51312;SDS011;37397;53.226;10.400;2023-12-20T13:56:05;17.42;;;3.83;;
51312;SDS011;37397;53.226;10.400;2023-12-20T13:58:32;11.63;;;2.80;;
51312;SDS011;37397;53.226;10.400;2023-12-20T14:01:02;12.80;;;2.72;;
51312;SDS011;37397;53.226;10.400;2023-12-20T14:03:29;17.58;;;3.03;;
51312;SDS011;37397;53.226;10.400;2023-12-20T14:05:57;18.23;;;3.30;;
51312;SDS011;37397;53.226;10.400;2023-12-20T14:08:24;14.80;;;2.80;;
51312;SDS011;37397;53.226;10.400;2023-12-20T14:10:50;13.38;;;3.55;;
51312;SDS011;37397;53.226;10.400;2023-12-20T14:13:17;14.77;;;3.53;;
51312;SDS011;37397;53.226;10.400;2023-12-20T14:15:43;21.60;;;3.83;;
51312;SDS011;37397;53.226;10.400;2023-12-20T14:18:10;17.10;;;3.72;;
51312;SDS011;37397;53.226;10.400;2023-12-20T14:20:39;15.35;;;3.00;;
51312;SDS011;37397;53.226;10.400;2023-12-20T14:23:06;15.60;;;3.40;;
51312;SDS011;37397;53.226;10.400;2023-12-20T14:25:33;16.52;;;3.47;;
51312;SDS011;37397;53.226;10.400;2023-12-20T14:28:14;15.90;;;3.72;;
51312;SDS011;37397;53.226;10.400;2023-12-20T14:30:41;18.00;;;3.58;;
51312;SDS011;37397;53.226;10.400;2023-12-20T14:33:08;18.08;;;3.45;;
51312;SDS011;37397;53.226;10.400;2023-12-20T14:35:34;17.65;;;3.95;;
51312;SDS011;37397;53.226;10.400;2023-12-20T14:38:03;14.75;;;3.60;;
51312;SDS011;37397;53.226;10.400;2023-12-20T14:40:30;18.63;;;4.07;;
51312;SDS011;37397;53.226;10.400;2023-12-20T14:42:57;20.52;;;4.45;;